DW2778 Lewes DE US current weather conditions

sailwx.info

Wind from 171 at 23 knots gusting 32

Air temperature 15.6° C
Dewpoint 15.1° C

Last reported at 2019-Dec-09 23:01 UTC.
Time now 2019-Dec-09 23:50 UTC

Location: N 38°47' W 075°09'.
View on Google Maps.

See reports from other nearby stations

  
Tides and Currents Weather Stations Pressure Air Temp Water Temp Dewpoint Dewpoint Depression Visibility Wind Speed Wind Dir Waves Ship Positions
date/time (UTC)wind fromknots sea level pressurealtimeterstation pressurevisibilityair tempwater tempwave heightnotes
2019-Dec-09 23:01 171 23 gusting 32 15.6
2019-Dec-09 22:46 196 11 gusting 23 15.6
2019-Dec-09 22:32 201 11 gusting 42 15.0
2019-Dec-09 22:17 200 6 gusting 39 15.0
2019-Dec-09 22:01 194 17 gusting 42 14.4
2019-Dec-09 21:46 191 22 gusting 50 14.4
2019-Dec-09 21:30 179 19 gusting 43 14.4
2019-Dec-09 21:16 149 7 gusting 23 13.9
2019-Dec-09 21:01 161 5 gusting 24 13.9
2019-Dec-09 20:46 161 17 gusting 37 12.8
2019-Dec-09 20:32 190 1 gusting 6 11.1
2019-Dec-09 20:15 217 2 gusting 9 13.3
2019-Dec-09 20:01 221 5 gusting 14 13.3
2019-Dec-09 19:47 221 12 gusting 29 13.3
2019-Dec-09 19:31 218 6 gusting 16 13.3
2019-Dec-09 19:16 188 4 gusting 13 13.9
2019-Dec-09 19:01 195 0 gusting 20 13.9
2019-Dec-09 18:46 223 10 gusting 30 14.4
2019-Dec-09 18:31 225 8 gusting 31 14.4
2019-Dec-09 18:16 194 14 gusting 31 14.4
2019-Dec-09 18:01 196 10 gusting 46 14.4
2019-Dec-09 17:46 198 13 gusting 39 14.4
2019-Dec-09 17:31 180 15 gusting 44 13.9
2019-Dec-09 17:16 181 20 gusting 36 13.9
2019-Dec-09 17:01 204 18 gusting 35 13.9
2019-Dec-09 16:30 186 13 gusting 31 13.3
2019-Dec-09 16:15 175 14 gusting 46 13.3
2019-Dec-09 16:00 165 20 gusting 38 13.3
2019-Dec-09 15:45 200 23 gusting 43 12.8
2019-Dec-09 15:30 180 19 gusting 40 13.3
2019-Dec-09 15:15 178 27 gusting 51 12.8
2019-Dec-09 15:00 175 26 gusting 44 12.2
2019-Dec-09 14:45 177 24 gusting 59 11.7
2019-Dec-09 14:30 202 25 gusting 66 12.2
2019-Dec-09 14:15 221 32 gusting 58 12.2
2019-Dec-09 14:00 186 23 gusting 49 12.2
2019-Dec-09 13:45 190 14 gusting 27 12.2
2019-Dec-09 13:33 192 9 gusting 31 11.7
2019-Dec-09 13:16 190 13 gusting 27 11.7
2019-Dec-09 13:01 170 13 gusting 23 11.1
2019-Dec-09 12:46 155 15 gusting 26 11.1
2019-Dec-09 12:32 173 14 gusting 27 10.6
2019-Dec-09 12:16 147 11 gusting 33 10.6
2019-Dec-09 12:01 180 15 gusting 34 10.0
2019-Dec-09 11:46 188 8.3
2019-Dec-09 11:31 233 8.3
2019-Dec-09 11:17 233 8.3
2019-Dec-09 11:01 233 8.3
2019-Dec-09 10:46 228 9 gusting 22 8.3
2019-Dec-09 10:31 225 3 gusting 30 8.9
2019-Dec-09 10:15 355 0 gusting 5 8.9
2019-Dec-09 10:01 351 8.9
2019-Dec-09 09:46 351 8.3
2019-Dec-09 09:31 349 8.3
2019-Dec-09 09:16 348 7.8
2019-Dec-09 09:01 310 7.8
2019-Dec-09 08:45 315 7.8
2019-Dec-09 08:31 303 7.2
2019-Dec-09 08:16 303 7.2
2019-Dec-09 08:01 302 7.2
2019-Dec-09 07:45 302 7.2
2019-Dec-09 07:30 302 7.2
2019-Dec-09 07:15 302 7.2
2019-Dec-09 07:00 302 7.2
2019-Dec-09 06:45 302 7.2
2019-Dec-09 06:31 301 6.7
2019-Dec-09 06:15 301 7.2
2019-Dec-09 06:00 301 7.2
2019-Dec-09 05:45 302 7.2
2019-Dec-09 05:30 303 7.2
2019-Dec-09 05:15 311 7.2
2019-Dec-09 05:00 311 7.2
2019-Dec-09 04:45 311 7.2
2019-Dec-09 04:30 311 7.2
2019-Dec-09 04:15 311 7.2
2019-Dec-09 04:00 311 6.7
2019-Dec-09 03:45 315 6.7
2019-Dec-09 03:30 294 6.7
2019-Dec-09 03:16 290 6.7
2019-Dec-09 03:01 294 7.2
2019-Dec-09 02:46 291 7.8
2019-Dec-09 02:31 143 8.9
2019-Dec-09 02:17 142 8.3
2019-Dec-09 02:01 160 8.3
2019-Dec-09 01:47 149 7.8
2019-Dec-09 01:32 135 7.2
2019-Dec-09 01:16 128 7.2
2019-Dec-09 01:01 152 6.7
2019-Dec-09 00:46 150 6.1
2019-Dec-09 00:31 150 6.1
2019-Dec-09 00:16 154 6.1
2019-Dec-09 00:01 154 6.1
2019-Dec-08 23:46 154 6.1
2019-Dec-08 23:31 153 5.6
2019-Dec-08 23:16 154 5.6
2019-Dec-08 23:01 154 5.6
2019-Dec-08 22:46 154 5.6
2019-Dec-08 22:32 154 6.1
2019-Dec-08 22:16 154 6.1
2019-Dec-08 22:01 154 6.7
2019-Dec-08 21:46 154 7.2
2019-Dec-08 21:31 154 2 gusting 13 7.2
2019-Dec-08 21:16 150 5 gusting 22 7.8
2019-Dec-08 21:01 115 11 gusting 21 7.8
2019-Dec-08 20:46 154 19 gusting 29 8.3
2019-Dec-08 20:30 130 14 gusting 30 8.3
2019-Dec-08 20:16 155 13 gusting 27 8.3
2019-Dec-08 20:01 143 13 gusting 29 8.3
2019-Dec-08 19:46 123 19 gusting 33 8.3
2019-Dec-08 19:30 146 19 gusting 34 8.9
2019-Dec-08 19:15 113 18 gusting 34 8.9
2019-Dec-08 19:01 136 17 gusting 43 8.9
2019-Dec-08 18:46 128 13 gusting 31 8.3
2019-Dec-08 18:31 115 14 gusting 36 8.3
2019-Dec-08 18:16 167 19 gusting 36 8.3
2019-Dec-08 18:01 152 20 gusting 46 8.3
2019-Dec-08 17:45 112 25 gusting 39 8.3
2019-Dec-08 17:30 139 11 gusting 43 7.8
2019-Dec-08 17:15 163 15 gusting 43 8.3
2019-Dec-08 17:01 156 13 gusting 37 8.3
2019-Dec-08 16:46 133 13 gusting 42 7.8
2019-Dec-08 16:30 111 22 gusting 48 7.8
2019-Dec-08 16:15 111 14 gusting 35 7.2
2019-Dec-08 16:00 124 10 gusting 33 6.7
2019-Dec-08 15:45 152 9 gusting 28 7.2
2019-Dec-08 15:30 122 10 gusting 35 6.7
2019-Dec-08 15:15 092 6.7
2019-Dec-08 15:00 109 6.7
2019-Dec-08 14:45 088 6.7
2019-Dec-08 14:31 082 6.1
2019-Dec-08 14:16 094 6.1
2019-Dec-08 14:01 090 5.6
2019-Dec-08 13:47 106 5.0
2019-Dec-08 13:31 103 5.0
2019-Dec-08 13:16 093 4.4
2019-Dec-08 13:01 102 3.9
2019-Dec-08 12:45 094 3.3
2019-Dec-08 12:30 114 2.8
2019-Dec-08 12:15 110 3.3
2019-Dec-08 12:00 097 3.3
2019-Dec-08 11:45 051 3.9
2019-Dec-08 11:30 066 3.9
2019-Dec-08 11:16 063 3.9
2019-Dec-08 11:00 038 3.9
2019-Dec-08 10:46 065 3.9
2019-Dec-08 10:30 051 3.9
2019-Dec-08 10:15 045 3.3
2019-Dec-08 10:01 038 3.3
2019-Dec-08 09:46 029 3.3
2019-Dec-08 09:30 027 3.3
2019-Dec-08 09:15 057 3.3
2019-Dec-08 09:00 055 3.3
2019-Dec-08 08:46 055 3.3
2019-Dec-08 08:30 059 3.3
2019-Dec-08 08:16 048 3.3
2019-Dec-08 08:00 055 3.3
2019-Dec-08 07:45 056 3.3
2019-Dec-08 07:30 039 3.3
2019-Dec-08 07:15 054 3.3
2019-Dec-08 07:00 023 3.3
2019-Dec-08 06:45 038 3.3
2019-Dec-08 06:30 058 3.3
2019-Dec-08 06:15 051 3.3
2019-Dec-08 06:00 021 3.3
2019-Dec-08 05:45 056 3.3
2019-Dec-08 05:30 011 3.3
2019-Dec-08 05:15 348 3.9
2019-Dec-08 05:00 036 3.9
2019-Dec-08 04:46 355 3.9
2019-Dec-08 04:32 009 3.9
2019-Dec-08 04:16 005 3.9
2019-Dec-08 04:01 012 3.9
2019-Dec-08 03:47 005 3.9
2019-Dec-08 03:31 012 3.9
2019-Dec-08 03:17 355 3.9
2019-Dec-08 03:01 350 3.3
2019-Dec-08 02:47 328 1.7
2019-Dec-08 02:31 268 1.1
2019-Dec-08 02:16 263 1.1
2019-Dec-08 02:03 267 1.7
2019-Dec-08 01:47 268 2.2
2019-Dec-08 01:31 269 2.2
2019-Dec-08 01:16 278 2.2
2019-Dec-08 01:01 280 2.2
2019-Dec-08 00:47 272 2.2
2019-Dec-08 00:31 268 2.2
2019-Dec-08 00:15 264 1.7
2019-Dec-08 00:02 263 2.8
2019-Dec-07 23:47 265 3.3
2019-Dec-07 23:32 294 3.3
2019-Dec-07 23:15 306 3.3
2019-Dec-07 23:00 293 3.9